createdAt,value
2022-10-07T00:01:48.081Z,8.30
2022-10-07T00:04:16.830Z,8.30
2022-10-07T00:06:44.921Z,8.40
2022-10-07T00:09:13.446Z,8.40
2022-10-07T00:11:43.997Z,8.40
2022-10-07T00:14:12.368Z,8.40
2022-10-07T00:16:41.973Z,8.40
2022-10-07T00:19:13.323Z,8.40
2022-10-07T00:21:41.824Z,8.30
2022-10-07T00:24:11.473Z,8.20
2022-10-07T00:26:40.234Z,8.10
2022-10-07T00:29:10.950Z,8.10
2022-10-07T00:31:39.519Z,8.10
2022-10-07T00:34:08.365Z,8.00
2022-10-07T00:36:38.943Z,7.90
2022-10-07T00:39:09.183Z,7.90
2022-10-07T00:41:41.316Z,7.90
2022-10-07T00:44:42.493Z,7.90
2022-10-07T00:47:24.820Z,7.90
2022-10-07T00:49:57.407Z,7.90
2022-10-07T00:52:30.239Z,7.90
2022-10-07T00:55:01.508Z,7.90
2022-10-07T00:57:33.159Z,8.00
2022-10-07T01:00:04.067Z,7.90
2022-10-07T01:02:32.768Z,7.80
2022-10-07T01:05:07.753Z,7.70
2022-10-07T01:07:37.397Z,7.70
2022-10-07T01:10:07.598Z,7.70
2022-10-07T01:12:46.855Z,7.50
2022-10-07T01:15:25.290Z,7.50
2022-10-07T01:18:01.296Z,7.50
2022-10-07T01:20:45.381Z,7.50
2022-10-07T01:23:46.698Z,7.30
2022-10-07T01:26:44.078Z,7.30
2022-10-07T01:29:15.707Z,7.30
2022-10-07T01:31:50.949Z,7.30
2022-10-07T01:34:21.040Z,7.30
2022-10-07T01:36:52.968Z,7.30
2022-10-07T01:39:25.731Z,7.20
2022-10-07T01:41:56.088Z,7.30
2022-10-07T01:44:27.274Z,7.20
2022-10-07T01:46:55.845Z,7.30
2022-10-07T01:49:24.353Z,7.20
2022-10-07T01:52:12.382Z,7.40
2022-10-07T01:54:58.074Z,7.20
2022-10-07T01:57:35.229Z,7.20
2022-10-07T02:00:08.880Z,7.20
2022-10-07T02:03:03.410Z,7.20
2022-10-07T02:05:42.286Z,7.20
2022-10-07T02:08:22.916Z,7.20
2022-10-07T02:11:05.024Z,7.20
2022-10-07T02:13:41.005Z,7.40
2022-10-07T02:16:18.225Z,7.20
2022-10-07T02:18:51.017Z,7.20
2022-10-07T02:21:24.324Z,7.20
2022-10-07T02:23:55.593Z,7.10
2022-10-07T02:26:26.049Z,7.00
2022-10-07T02:28:57.080Z,7.00
2022-10-07T02:31:31.397Z,7.00
2022-10-07T02:34:05.370Z,7.00
2022-10-07T02:36:36.953Z,6.90
2022-10-07T02:39:11.364Z,6.90
2022-10-07T02:41:50.200Z,6.90
2022-10-07T02:44:29.786Z,6.80
2022-10-07T02:47:06.491Z,6.80
2022-10-07T02:49:38.999Z,6.80
2022-10-07T02:52:10.270Z,6.70
2022-10-07T02:54:42.746Z,6.70
2022-10-07T02:57:13.662Z,6.70
2022-10-07T02:59:45.210Z,6.70
2022-10-07T03:02:18.897Z,6.70
2022-10-07T03:04:47.292Z,6.80
2022-10-07T03:07:18.280Z,6.70
2022-10-07T03:09:46.727Z,6.70
2022-10-07T03:12:14.941Z,6.60
2022-10-07T03:14:45.033Z,6.60
2022-10-07T03:17:14.221Z,6.50
2022-10-07T03:19:42.982Z,6.50
2022-10-07T03:22:11.670Z,6.70
2022-10-07T03:24:42.553Z,6.50
2022-10-07T03:27:11.101Z,6.60
2022-10-07T03:32:11.873Z,6.50
2022-10-07T03:34:40.137Z,6.50
2022-10-07T03:37:08.937Z,6.60
2022-10-07T03:39:37.404Z,6.60
2022-10-07T03:42:06.424Z,6.60
2022-10-07T03:44:35.766Z,6.30
2022-10-07T03:47:07.658Z,6.50
2022-10-07T03:49:41.578Z,6.50
2022-10-07T03:52:10.972Z,6.40
2022-10-07T03:54:39.232Z,6.40
2022-10-07T03:59:53.689Z,6.50
2022-10-07T04:02:23.613Z,6.40
2022-10-07T04:04:53.697Z,6.40
2022-10-07T04:07:24.103Z,6.40
2022-10-07T04:09:53.700Z,6.30
2022-10-07T04:12:22.637Z,6.30
2022-10-07T04:14:51.452Z,6.20
2022-10-07T04:19:53.479Z,6.20
2022-10-07T04:22:22.171Z,6.10
2022-10-07T04:25:10.505Z,6.00
2022-10-07T04:41:06.832Z,6.10
2022-10-07T04:43:37.291Z,6.10
2022-10-07T04:46:14.780Z,6.00
2022-10-07T04:48:49.137Z,6.00
2022-10-07T04:51:23.855Z,6.10
2022-10-07T04:56:31.437Z,6.10
2022-10-07T04:59:05.152Z,6.10
2022-10-07T05:01:33.814Z,6.10
2022-10-07T05:04:03.018Z,6.10
2022-10-07T05:06:32.868Z,6.10
2022-10-07T05:09:01.312Z,6.00
2022-10-07T05:11:32.787Z,6.00
2022-10-07T05:14:08.828Z,6.00
2022-10-07T05:16:38.366Z,6.00
2022-10-07T05:19:07.634Z,6.00
2022-10-07T05:21:37.242Z,6.00
2022-10-07T05:24:06.702Z,6.00
2022-10-07T05:26:38.170Z,5.90
2022-10-07T05:29:08.898Z,6.10
2022-10-07T05:31:42.287Z,5.90
2022-10-07T05:34:11.953Z,6.00
2022-10-07T05:36:42.373Z,5.90
2022-10-07T05:39:11.760Z,5.90
2022-10-07T05:41:50.917Z,6.00
2022-10-07T05:44:24.106Z,6.00
2022-10-07T05:46:54.298Z,6.00
2022-10-07T05:49:24.409Z,6.00
2022-10-07T05:51:54.698Z,6.00
2022-10-07T05:54:24.532Z,6.00
2022-10-07T05:56:54.735Z,6.00
2022-10-07T05:59:24.152Z,6.10
2022-10-07T06:01:59.973Z,6.10
2022-10-07T06:04:29.441Z,6.20
2022-10-07T06:09:50.693Z,6.10
2022-10-07T06:12:37.184Z,6.10
2022-10-07T06:15:11.552Z,6.30
2022-10-07T06:20:15.323Z,6.00
2022-10-07T06:22:46.186Z,6.10
2022-10-07T06:25:16.764Z,6.30
2022-10-07T06:27:52.739Z,6.50
2022-10-07T06:30:22.855Z,6.60
2022-10-07T06:32:51.287Z,6.70
2022-10-07T06:35:20.300Z,6.80
2022-10-07T06:37:52.434Z,7.10
2022-10-07T06:42:53.064Z,7.20
2022-10-07T06:45:44.224Z,7.50
2022-10-07T06:48:14.311Z,7.50
2022-10-07T06:50:51.793Z,7.50
2022-10-07T06:53:22.448Z,7.50
2022-10-07T06:55:57.752Z,7.60
2022-10-07T06:58:28.675Z,7.70
2022-10-07T07:00:59.796Z,7.70
2022-10-07T07:03:29.638Z,7.80
2022-10-07T07:06:02.168Z,8.00
2022-10-07T07:08:36.293Z,8.00
2022-10-07T07:11:31.056Z,8.20
2022-10-07T07:14:04.042Z,8.50
2022-10-07T07:16:33.119Z,8.60
2022-10-07T07:19:05.331Z,8.60
2022-10-07T07:21:34.632Z,8.80
2022-10-07T07:24:04.591Z,8.80
2022-10-07T07:26:44.153Z,8.90
2022-10-07T07:29:16.496Z,9.20
2022-10-07T07:31:55.805Z,9.40
2022-10-07T07:34:28.046Z,9.70
2022-10-07T07:36:57.230Z,9.60
2022-10-07T07:39:32.061Z,9.70
2022-10-07T07:42:05.913Z,9.80
2022-10-07T07:44:36.844Z,10.10
2022-10-07T07:47:09.756Z,10.20
2022-10-07T07:49:40.326Z,10.40
2022-10-07T07:52:12.351Z,10.40
2022-10-07T07:54:48.583Z,10.40
2022-10-07T07:57:17.276Z,10.60
2022-10-07T07:59:46.483Z,10.80
2022-10-07T08:02:18.313Z,10.90
2022-10-07T08:04:54.829Z,11.20
2022-10-07T08:07:28.452Z,11.00
2022-10-07T08:09:58.480Z,10.80
2022-10-07T08:12:26.687Z,10.60
2022-10-07T08:14:56.461Z,10.60
2022-10-07T08:17:25.097Z,10.80
2022-10-07T08:19:54.598Z,11.00
2022-10-07T08:22:22.835Z,11.40
2022-10-07T08:24:53.072Z,11.70
2022-10-07T08:27:24.797Z,11.90
2022-10-07T08:29:53.091Z,11.80
2022-10-07T08:32:22.443Z,12.10
2022-10-07T08:34:50.856Z,12.40
2022-10-07T08:37:20.704Z,12.40
2022-10-07T08:39:50.452Z,12.30
2022-10-07T08:42:29.309Z,12.20
2022-10-07T08:45:01.652Z,13.30
2022-10-07T08:47:37.037Z,13.40
2022-10-07T08:50:09.843Z,13.50
2022-10-07T08:52:51.903Z,13.50
2022-10-07T08:55:28.321Z,13.60
2022-10-07T08:58:22.320Z,13.50
2022-10-07T09:00:55.546Z,13.40
2022-10-07T09:03:37.112Z,13.80
2022-10-07T09:06:14.357Z,14.10
2022-10-07T09:08:46.926Z,14.10
2022-10-07T09:11:25.522Z,13.30
2022-10-07T09:14:00.435Z,12.60
2022-10-07T09:16:33.326Z,12.40
2022-10-07T09:19:03.789Z,12.40
2022-10-07T09:21:38.110Z,12.80
2022-10-07T09:24:20.052Z,12.80
2022-10-07T09:26:48.779Z,13.00
2022-10-07T09:29:23.066Z,13.20
2022-10-07T09:31:53.469Z,13.30
2022-10-07T09:34:25.036Z,13.30
2022-10-07T09:37:27.710Z,13.60
2022-10-07T09:39:58.451Z,14.20
2022-10-07T09:42:35.228Z,14.60
2022-10-07T09:45:20.204Z,14.50
2022-10-07T09:47:53.209Z,14.70
2022-10-07T09:50:37.131Z,14.40
2022-10-07T09:53:07.357Z,14.50
2022-10-07T09:55:41.993Z,14.80
2022-10-07T09:58:19.248Z,14.80
2022-10-07T10:00:50.852Z,15.20
2022-10-07T10:03:20.215Z,15.50
2022-10-07T10:05:57.526Z,15.70
2022-10-07T10:08:28.698Z,15.90
2022-10-07T10:10:58.764Z,16.00
2022-10-07T10:13:32.665Z,16.10
2022-10-07T10:16:04.087Z,16.20
2022-10-07T10:18:38.623Z,16.20
2022-10-07T10:21:30.225Z,16.50
2022-10-07T10:24:00.166Z,16.00
2022-10-07T10:26:56.563Z,15.50
2022-10-07T10:29:44.606Z,15.50
2022-10-07T10:32:48.805Z,15.90
2022-10-07T10:35:23.306Z,16.40
2022-10-07T10:38:10.974Z,16.50
2022-10-07T10:40:43.003Z,16.40
2022-10-07T10:43:26.223Z,16.40
2022-10-07T10:46:19.076Z,16.50
2022-10-07T10:48:56.471Z,16.50
2022-10-07T10:51:36.807Z,16.60
2022-10-07T10:54:20.254Z,16.90
2022-10-07T10:56:56.877Z,17.10
2022-10-07T11:00:04.670Z,17.10
2022-10-07T11:03:06.731Z,17.50
2022-10-07T11:05:38.911Z,17.40
2022-10-07T11:08:19.198Z,17.20
2022-10-07T11:10:52.465Z,16.90
2022-10-07T11:13:31.228Z,16.60
2022-10-07T11:16:06.424Z,17.10
2022-10-07T11:18:42.060Z,17.10
2022-10-07T11:21:18.528Z,16.90
2022-10-07T11:23:54.207Z,17.10
2022-10-07T11:26:29.973Z,17.90
2022-10-07T11:29:05.859Z,17.60
2022-10-07T11:31:38.730Z,17.60
2022-10-07T11:34:17.715Z,17.60
2022-10-07T11:36:54.191Z,17.50
2022-10-07T11:39:26.186Z,17.40
2022-10-07T11:42:01.421Z,17.20
2022-10-07T11:44:33.211Z,17.40
2022-10-07T11:47:04.107Z,17.90
2022-10-07T11:49:41.288Z,17.60
2022-10-07T11:52:20.993Z,17.80
2022-10-07T11:54:59.115Z,17.60
2022-10-07T11:57:32.319Z,17.60
2022-10-07T12:00:02.914Z,17.60
2022-10-07T12:02:45.946Z,17.50
2022-10-07T12:06:06.380Z,17.60
2022-10-07T12:08:38.483Z,17.80
2022-10-07T12:11:40.249Z,17.60
2022-10-07T12:14:47.031Z,17.80
2022-10-07T12:17:23.546Z,17.80
2022-10-07T12:20:42.859Z,17.20
2022-10-07T12:23:47.149Z,17.10
2022-10-07T12:26:50.354Z,17.80
2022-10-07T12:29:31.346Z,18.00
2022-10-07T12:32:03.767Z,18.00
2022-10-07T12:34:43.414Z,17.70
2022-10-07T12:37:45.115Z,18.00
2022-10-07T12:40:21.841Z,18.30
2022-10-07T12:42:57.523Z,18.30
2022-10-07T12:45:28.806Z,18.10
2022-10-07T12:48:00.770Z,17.80
2022-10-07T12:50:33.327Z,18.10
2022-10-07T12:53:04.071Z,17.90
2022-10-07T12:55:37.201Z,18.30
2022-10-07T12:58:36.655Z,18.60
2022-10-07T13:01:22.512Z,18.20
2022-10-07T13:04:22.996Z,18.20
2022-10-07T13:07:34.165Z,18.30
2022-10-07T13:10:30.725Z,18.40
2022-10-07T13:13:04.503Z,18.10
2022-10-07T13:15:42.628Z,18.00
2022-10-07T13:18:20.904Z,17.90
2022-10-07T13:21:04.134Z,18.00
2022-10-07T13:23:33.133Z,18.30
2022-10-07T13:26:04.313Z,18.30
2022-10-07T13:28:49.198Z,18.40
2022-10-07T13:31:22.821Z,18.30
2022-10-07T13:33:52.913Z,17.90
2022-10-07T13:36:24.634Z,18.10
2022-10-07T13:38:56.456Z,18.10
2022-10-07T13:41:28.382Z,18.10
2022-10-07T13:44:00.769Z,18.40
2022-10-07T13:46:32.897Z,18.50
2022-10-07T13:49:02.439Z,18.60
2022-10-07T13:51:35.617Z,19.10
2022-10-07T13:54:06.411Z,19.10
2022-10-07T13:56:41.037Z,18.70
2022-10-07T13:59:15.961Z,18.70
2022-10-07T14:01:49.871Z,18.50
2022-10-07T14:04:22.949Z,18.40
2022-10-07T14:06:57.892Z,18.50
2022-10-07T14:09:37.141Z,18.60
2022-10-07T14:12:09.208Z,18.80
2022-10-07T14:14:40.301Z,18.90
2022-10-07T14:17:28.946Z,18.80
2022-10-07T14:20:05.601Z,18.90
2022-10-07T14:22:38.298Z,18.80
2022-10-07T14:25:20.138Z,18.60
2022-10-07T14:28:09.057Z,18.60
2022-10-07T14:30:57.262Z,18.50
2022-10-07T14:33:48.689Z,18.20
2022-10-07T14:36:19.889Z,18.10
2022-10-07T14:38:50.152Z,18.10
2022-10-07T14:41:23.574Z,18.00
2022-10-07T14:43:52.957Z,18.00
2022-10-07T14:46:23.128Z,18.20
2022-10-07T14:48:54.177Z,18.20
2022-10-07T14:51:24.704Z,18.20
2022-10-07T14:53:56.966Z,18.10
2022-10-07T14:56:31.469Z,18.20
2022-10-07T14:59:03.765Z,18.20
2022-10-07T15:01:34.536Z,18.20
2022-10-07T15:04:04.305Z,18.10
2022-10-07T15:09:01.708Z,18.10
2022-10-07T15:11:30.292Z,17.50
2022-10-07T15:13:58.685Z,17.90
2022-10-07T15:16:30.127Z,17.90
2022-10-07T15:19:02.135Z,17.90
2022-10-07T15:21:32.121Z,18.00
2022-10-07T15:24:01.973Z,18.20
2022-10-07T15:26:31.158Z,17.90
2022-10-07T15:29:00.690Z,17.90
2022-10-07T15:31:32.105Z,17.90
2022-10-07T15:34:02.068Z,17.90
2022-10-07T15:36:32.744Z,17.90
2022-10-07T15:39:02.439Z,17.80
2022-10-07T15:41:34.373Z,17.80
2022-10-07T15:44:05.729Z,17.80
2022-10-07T15:46:34.420Z,18.10
2022-10-07T15:49:05.796Z,18.20
2022-10-07T15:51:36.983Z,18.20
2022-10-07T15:54:13.479Z,18.00
2022-10-07T15:59:12.210Z,18.00
2022-10-07T16:04:23.443Z,18.00
2022-10-07T16:06:54.240Z,18.00
2022-10-07T16:09:26.705Z,17.70
2022-10-07T16:11:55.745Z,17.70
2022-10-07T16:16:57.357Z,17.50
2022-10-07T16:19:26.460Z,17.50
2022-10-07T16:27:03.895Z,17.30
2022-10-07T16:29:51.463Z,17.20
2022-10-07T17:15:29.082Z,14.60
2022-10-07T17:23:09.710Z,14.30
2022-10-07T17:38:46.424Z,14.10
2022-10-07T17:41:19.129Z,14.00
2022-10-07T17:43:49.330Z,14.00
2022-10-07T17:46:20.655Z,14.00
2022-10-07T17:48:56.011Z,13.80
2022-10-07T17:51:30.361Z,13.70
2022-10-07T17:54:04.239Z,13.50
2022-10-07T17:59:05.493Z,13.40
2022-10-07T18:01:35.382Z,13.40
2022-10-07T18:04:10.364Z,13.40
2022-10-07T18:06:43.207Z,13.50
2022-10-07T18:09:19.675Z,13.50
2022-10-07T18:12:06.537Z,13.50
2022-10-07T18:14:58.287Z,13.40
2022-10-07T18:17:29.939Z,13.30
2022-10-07T18:20:15.166Z,13.30
2022-10-07T18:25:36.140Z,13.20
2022-10-07T18:38:19.690Z,13.20
2022-10-07T18:46:16.793Z,13.30
2022-10-07T19:12:29.464Z,12.90
2022-10-07T19:14:58.172Z,12.90
2022-10-07T19:17:34.021Z,12.90
2022-10-07T19:20:04.956Z,12.90
2022-10-07T19:25:21.458Z,12.80
2022-10-07T19:30:20.439Z,12.70
2022-10-07T19:35:25.721Z,12.80
2022-10-07T19:40:29.969Z,12.80
2022-10-07T19:45:40.752Z,12.70
2022-10-07T19:51:01.696Z,12.50
2022-10-07T19:56:17.744Z,12.40
2022-10-07T20:01:42.179Z,12.40
2022-10-07T20:04:19.100Z,12.40
2022-10-07T20:27:22.374Z,12.10
2022-10-07T20:32:34.675Z,11.90
2022-10-07T21:14:27.152Z,11.40
2022-10-07T21:17:06.924Z,11.30
2022-10-07T21:22:09.012Z,11.20
2022-10-07T21:29:54.247Z,11.20
2022-10-07T22:04:03.550Z,10.90
2022-10-07T22:12:20.993Z,10.90
2022-10-07T22:14:57.257Z,10.90
2022-10-07T22:36:11.439Z,10.90
2022-10-07T22:38:49.125Z,10.80
2022-10-07T22:51:34.535Z,10.70
2022-10-07T22:54:03.114Z,10.70
2022-10-07T22:56:32.452Z,10.70
2022-10-07T22:59:01.328Z,10.80
2022-10-07T23:01:32.074Z,10.70
2022-10-07T23:04:04.438Z,10.70
2022-10-07T23:14:05.321Z,10.60
2022-10-07T23:16:34.295Z,10.60
2022-10-07T23:19:02.783Z,10.60
2022-10-07T23:21:38.976Z,10.70
2022-10-07T23:24:10.207Z,10.60
2022-10-07T23:26:41.141Z,10.60
2022-10-07T23:29:11.729Z,10.70
2022-10-07T23:31:42.417Z,10.60
2022-10-07T23:34:12.166Z,10.60
2022-10-07T23:39:12.388Z,10.60
2022-10-07T23:41:40.844Z,10.60
2022-10-07T23:44:09.410Z,10.60
2022-10-07T23:46:41.087Z,10.60
2022-10-07T23:51:45.353Z,10.60
2022-10-07T23:54:13.639Z,10.60
